Time;durP1;ratioP1;P1;durP2;ratioP2;P2;SDS_P1;SDS_P2;PMS_P1;PMS_P2;Temp;Humidity;BMP_temperature;BMP_pressure;BME280_temperature;BME280_humidity;BME280_pressure;Samples;Min_cycle;Max_cycle;Signal;HPM_P1;HPM_P2
2022/09/07 00:00:43;;;;;;;3.92;1.70;;;;;;;;;;5003580;28;20088;-80
2022/09/07 00:03:09;;;;;;;6.45;1.60;;;;;;;;;;4986094;28;20038;-80
2022/09/07 00:05:43;;;;;;;4.13;2.20;;;;;;;;;;4990965;28;20050;-81
2022/09/07 00:08:09;;;;;;;4.65;1.50;;;;;;;;;;5005019;28;20098;-82
2022/09/07 00:10:34;;;;;;;4.53;1.40;;;;;;;;;;4989094;28;20435;-80
2022/09/07 00:12:59;;;;;;;3.55;1.60;;;;;;;;;;5001638;28;20106;-80
2022/09/07 00:15:25;;;;;;;4.78;2.20;;;;;;;;;;5006004;28;20167;-80
2022/09/07 00:17:51;;;;;;;3.70;1.40;;;;;;;;;;4981359;28;20046;-80
2022/09/07 00:20:16;;;;;;;3.42;1.50;;;;;;;;;;4974646;28;20042;-81
2022/09/07 00:22:42;;;;;;;5.03;1.52;;;;;;;;;;5010629;28;20074;-81
2022/09/07 00:25:07;;;;;;;4.63;1.60;;;;;;;;;;5009768;28;20533;-81
2022/09/07 00:27:33;;;;;;;3.83;1.45;;;;;;;;;;4964950;28;20034;-80
2022/09/07 00:29:58;;;;;;;3.17;1.50;;;;;;;;;;5015331;28;20074;-81
2022/09/07 00:32:24;;;;;;;4.00;1.60;;;;;;;;;;4963930;28;20038;-81
2022/09/07 00:34:49;;;;;;;4.93;1.60;;;;;;;;;;4959959;28;20055;-80
2022/09/07 00:37:15;;;;;;;4.28;1.58;;;;;;;;;;4976029;28;20034;-81
2022/09/07 00:39:40;;;;;;;4.63;1.70;;;;;;;;;;5012578;28;20062;-81
2022/09/07 00:42:06;;;;;;;4.05;1.50;;;;;;;;;;5001316;28;20118;-81
2022/09/07 00:44:43;;;;;;;3.78;1.40;;;;;;;;;;5011443;28;20569;-81
2022/09/07 00:47:15;;;;;;;4.38;1.50;;;;;;;;;;4973488;28;20046;-82
2022/09/07 00:49:41;;;;;;;3.33;1.40;;;;;;;;;;4994982;28;20042;-80
2022/09/07 00:52:06;;;;;;;3.25;1.50;;;;;;;;;;4991637;28;20581;-81
2022/09/07 00:54:37;;;;;;;3.97;1.40;;;;;;;;;;5008193;28;20041;-80
2022/09/07 00:57:03;;;;;;;3.83;1.35;;;;;;;;;;4975663;28;20371;-81
2022/09/07 00:59:36;;;;;;;3.33;1.35;;;;;;;;;;4961342;28;20043;-81
2022/09/07 01:02:02;;;;;;;4.55;1.50;;;;;;;;;;4946122;28;20034;-81
2022/09/07 01:04:28;;;;;;;3.53;1.60;;;;;;;;;;4939511;28;20498;-81
2022/09/07 01:06:54;;;;;;;4.20;1.40;;;;;;;;;;4961768;28;20486;-81
2022/09/07 01:09:24;;;;;;;3.30;1.45;;;;;;;;;;4993491;28;20035;-81
2022/09/07 01:11:51;;;;;;;3.85;1.35;;;;;;;;;;4955269;28;20102;-81
2022/09/07 01:14:25;;;;;;;4.28;1.73;;;;;;;;;;4936319;28;20035;-81
2022/09/07 01:17:02;;;;;;;3.00;1.50;;;;;;;;;;4950708;28;20042;-80
2022/09/07 01:19:43;;;;;;;4.65;1.40;;;;;;;;;;5005360;28;20517;-80
2022/09/07 01:22:32;;;;;;;3.33;1.27;;;;;;;;;;5002253;28;20057;-81
2022/09/07 01:25:13;;;;;;;4.45;1.50;;;;;;;;;;4969198;28;20045;-81
2022/09/07 01:27:59;;;;;;;3.67;1.50;;;;;;;;;;4956233;28;20546;-81
2022/09/07 01:30:26;;;;;;;4.05;1.50;;;;;;;;;;5000682;28;20398;-81
2022/09/07 01:33:12;;;;;;;3.35;1.35;;;;;;;;;;4973825;28;20046;-80
2022/09/07 01:36:03;;;;;;;4.50;1.50;;;;;;;;;;4974048;28;20043;-80
2022/09/07 01:38:37;;;;;;;5.75;1.60;;;;;;;;;;4989958;28;20443;-81
2022/09/07 01:41:31;;;;;;;4.03;1.70;;;;;;;;;;4943837;28;20061;-80
2022/09/07 01:44:19;;;;;;;4.18;1.33;;;;;;;;;;4969089;28;20497;-80
2022/09/07 01:46:59;;;;;;;3.88;1.35;;;;;;;;;;4954921;28;20046;-81
2022/09/07 01:49:37;;;;;;;2.65;1.27;;;;;;;;;;4987823;28;20097;-81
2022/09/07 01:52:08;;;;;;;4.13;1.40;;;;;;;;;;4973134;28;20041;-80
2022/09/07 01:54:39;;;;;;;3.45;1.60;;;;;;;;;;5006513;28;20034;-81
2022/09/07 01:57:11;;;;;;;5.70;1.60;;;;;;;;;;4986614;28;20118;-80
2022/09/07 01:59:43;;;;;;;3.40;1.38;;;;;;;;;;4972148;28;20038;-82
2022/09/07 02:02:12;;;;;;;4.43;1.40;;;;;;;;;;4987720;28;20027;-82
2022/09/07 02:04:52;;;;;;;4.25;1.45;;;;;;;;;;4949089;28;20588;-81
2022/09/07 02:07:20;;;;;;;2.78;1.33;;;;;;;;;;4986400;28;20395;-82
2022/09/07 02:09:51;;;;;;;4.43;1.40;;;;;;;;;;4972945;28;20109;-80
2022/09/07 02:12:39;;;;;;;2.55;1.10;;;;;;;;;;4961789;28;20355;-80
2022/09/07 02:15:10;;;;;;;3.67;1.25;;;;;;;;;;4972747;28;20479;-81
2022/09/07 02:17:43;;;;;;;3.80;1.27;;;;;;;;;;4966146;28;20057;-80
2022/09/07 02:20:11;;;;;;;5.47;1.45;;;;;;;;;;5003914;28;20057;-80
2022/09/07 02:22:40;;;;;;;5.47;1.55;;;;;;;;;;4970880;28;20651;-80
2022/09/07 02:25:06;;;;;;;5.20;1.58;;;;;;;;;;4985033;28;20031;-80
2022/09/07 02:27:42;;;;;;;4.05;1.65;;;;;;;;;;4951751;28;20498;-80
2022/09/07 02:30:08;;;;;;;3.50;1.33;;;;;;;;;;4938272;28;20078;-80
2022/09/07 02:32:34;;;;;;;4.82;1.50;;;;;;;;;;4951256;28;20402;-80
2022/09/07 02:34:59;;;;;;;3.95;1.40;;;;;;;;;;4950650;28;20045;-81
2022/09/07 02:37:26;;;;;;;5.28;1.50;;;;;;;;;;4945777;28;20082;-80
2022/09/07 02:39:54;;;;;;;4.55;1.92;;;;;;;;;;4971701;28;20043;-80
2022/09/07 02:42:19;;;;;;;;;;;;;;;;;;4956386;28;20031;-80
2022/09/07 02:44:45;;;;;;;4.07;1.40;;;;;;;;;;4970890;28;20510;-80
2022/09/07 02:47:29;;;;;;;3.67;1.48;;;;;;;;;;4986971;28;20042;-81
2022/09/07 02:50:12;;;;;;;4.13;1.50;;;;;;;;;;4985051;28;20094;-81
2022/09/07 02:52:46;;;;;;;4.70;1.80;;;;;;;;;;4972768;28;20412;-80
2022/09/07 02:55:41;;;;;;;4.18;1.48;;;;;;;;;;4982926;28;20049;-80
2022/09/07 02:58:38;;;;;;;5.35;1.70;;;;;;;;;;4970159;28;20404;-81
2022/09/07 03:01:08;;;;;;;5.82;1.52;;;;;;;;;;4989456;28;20043;-80
2022/09/07 03:04:26;;;;;;;4.68;1.50;;;;;;;;;;4990472;28;20036;-80
2022/09/07 03:06:59;;;;;;;4.85;1.27;;;;;;;;;;4941471;28;20055;-80
2022/09/07 03:09:27;;;;;;;4.95;1.50;;;;;;;;;;4972275;28;20373;-80
2022/09/07 03:11:52;;;;;;;4.55;1.73;;;;;;;;;;4958874;28;20153;-80
2022/09/07 03:14:24;;;;;;;3.83;1.50;;;;;;;;;;4974711;28;20094;-80
2022/09/07 03:16:53;;;;;;;3.15;1.48;;;;;;;;;;4970090;28;20106;-81
2022/09/07 03:19:18;;;;;;;4.55;1.50;;;;;;;;;;4962431;28;20385;-81
2022/09/07 03:21:43;;;;;;;4.35;1.38;;;;;;;;;;4990383;28;20034;-81
2022/09/07 03:24:09;;;;;;;4.88;1.75;;;;;;;;;;4991933;28;20393;-81
2022/09/07 03:26:39;;;;;;;5.93;1.52;;;;;;;;;;4979063;28;20045;-80
2022/09/07 03:29:04;;;;;;;3.53;1.48;;;;;;;;;;4940704;28;20049;-81
2022/09/07 03:31:31;;;;;;;6.53;1.65;;;;;;;;;;4959748;28;20145;-80
2022/09/07 03:33:57;;;;;;;5.03;1.70;;;;;;;;;;4945593;28;20031;-81
2022/09/07 03:36:22;;;;;;;4.53;1.80;;;;;;;;;;4941263;28;20047;-81
2022/09/07 03:38:48;;;;;;;3.53;1.50;;;;;;;;;;4989249;28;20042;-80
2022/09/07 03:41:13;;;;;;;6.22;1.70;;;;;;;;;;4959033;28;20406;-80
2022/09/07 03:43:38;;;;;;;4.45;1.75;;;;;;;;;;4989684;28;20094;-80
2022/09/07 03:46:05;;;;;;;3.15;1.55;;;;;;;;;;4992187;28;20035;-81
2022/09/07 03:48:33;;;;;;;4.60;1.83;;;;;;;;;;4974247;28;20042;-80
2022/09/07 03:51:08;;;;;;;6.97;1.70;;;;;;;;;;4978938;28;20033;-81
2022/09/07 03:53:38;;;;;;;5.05;1.73;;;;;;;;;;4948236;28;20390;-80
2022/09/07 03:56:08;;;;;;;3.78;1.80;;;;;;;;;;4976857;28;20382;-80
2022/09/07 03:58:34;;;;;;;4.10;1.50;;;;;;;;;;4960717;28;20034;-81
2022/09/07 04:01:04;;;;;;;4.45;1.50;;;;;;;;;;4974885;28;20042;-81
2022/09/07 04:03:29;;;;;;;3.55;1.58;;;;;;;;;;4974096;28;20050;-80
2022/09/07 04:05:57;;;;;;;4.80;1.58;;;;;;;;;;4957189;28;20046;-83
2022/09/07 04:08:27;;;;;;;5.40;1.90;;;;;;;;;;4970652;28;20049;-85
2022/09/07 04:10:56;;;;;;;3.97;1.60;;;;;;;;;;4972318;28;20058;-83
2022/09/07 04:13:21;;;;;;;5.85;1.80;;;;;;;;;;4971050;28;20069;-84
2022/09/07 04:15:46;;;;;;;5.63;2.10;;;;;;;;;;4962196;28;20498;-86
2022/09/07 04:18:12;;;;;;;7.97;2.53;;;;;;;;;;4954785;28;20403;-85
2022/09/07 04:20:37;;;;;;;6.13;2.20;;;;;;;;;;4948811;28;20043;-84
2022/09/07 04:23:02;;;;;;;7.05;2.00;;;;;;;;;;4953706;28;20066;-84
2022/09/07 04:25:28;;;;;;;5.32;1.88;;;;;;;;;;4953133;28;20260;-86
2022/09/07 04:27:54;;;;;;;5.15;1.67;;;;;;;;;;4985145;28;20379;-86
2022/09/07 04:30:20;;;;;;;4.55;1.85;;;;;;;;;;4938928;28;20062;-85
2022/09/07 04:32:46;;;;;;;7.45;2.08;;;;;;;;;;4939575;28;20043;-84
2022/09/07 04:35:11;;;;;;;4.30;1.90;;;;;;;;;;4951859;28;20035;-84
2022/09/07 04:37:37;;;;;;;4.13;1.73;;;;;;;;;;4938063;28;20039;-84
2022/09/07 04:40:03;;;;;;;7.60;1.90;;;;;;;;;;4950919;28;20067;-86
2022/09/07 04:42:29;;;;;;;6.18;1.95;;;;;;;;;;4936573;28;20039;-85
2022/09/07 04:44:54;;;;;;;6.15;1.70;;;;;;;;;;4944312;28;20039;-85
2022/09/07 04:47:19;;;;;;;4.80;1.98;;;;;;;;;;4937055;28;20856;-85
2022/09/07 04:49:45;;;;;;;4.90;1.90;;;;;;;;;;4940292;28;20368;-85
2022/09/07 04:52:10;;;;;;;6.35;2.20;;;;;;;;;;4966598;28;20093;-85
2022/09/07 04:54:36;;;;;;;5.32;2.00;;;;;;;;;;4941764;28;20043;-85
2022/09/07 04:57:01;;;;;;;5.68;2.20;;;;;;;;;;4943086;28;20039;-85
2022/09/07 04:59:27;;;;;;;5.65;2.20;;;;;;;;;;4968091;28;20039;-85
2022/09/07 05:01:52;;;;;;;6.10;2.08;;;;;;;;;;4936455;28;20054;-82
2022/09/07 05:04:17;;;;;;;6.65;2.15;;;;;;;;;;4941089;28;20035;-83
2022/09/07 05:06:42;;;;;;;4.97;1.88;;;;;;;;;;4959435;28;20047;-82
2022/09/07 05:09:09;;;;;;;8.25;2.13;;;;;;;;;;4945214;28;20031;-82
2022/09/07 05:11:34;;;;;;;5.43;2.00;;;;;;;;;;4974563;28;20093;-83
2022/09/07 05:14:01;;;;;;;6.00;2.65;;;;;;;;;;4996970;28;20081;-82
2022/09/07 05:16:27;;;;;;;5.00;2.15;;;;;;;;;;4988918;28;20042;-83
2022/09/07 05:18:55;;;;;;;5.68;2.17;;;;;;;;;;4993747;28;20534;-82
2022/09/07 05:21:24;;;;;;;6.20;2.20;;;;;;;;;;4956088;28;20604;-82
2022/09/07 05:23:51;;;;;;;5.57;2.20;;;;;;;;;;4961676;28;20042;-83
2022/09/07 05:26:17;;;;;;;6.28;2.20;;;;;;;;;;5009422;28;20049;-82
2022/09/07 05:28:43;;;;;;;8.07;2.20;;;;;;;;;;4961014;28;20046;-87
2022/09/07 05:31:11;;;;;;;5.32;2.78;;;;;;;;;;5000987;28;20035;-84
2022/09/07 05:33:36;;;;;;;5.57;2.40;;;;;;;;;;4943126;28;20038;-84
2022/09/07 05:36:03;;;;;;;5.85;2.38;;;;;;;;;;4954399;28;20462;-84
2022/09/07 05:38:38;;;;;;;5.75;2.05;;;;;;;;;;4949453;28;20045;-84
2022/09/07 05:41:13;;;;;;;5.45;2.10;;;;;;;;;;4967045;28;20039;-85
2022/09/07 05:43:40;;;;;;;7.22;2.38;;;;;;;;;;4972013;28;20050;-85
2022/09/07 05:46:06;;;;;;;5.93;2.10;;;;;;;;;;4962363;28;20030;-84
2022/09/07 05:48:31;;;;;;;6.03;2.50;;;;;;;;;;4989448;28;20047;-82
2022/09/07 05:50:57;;;;;;;4.85;1.90;;;;;;;;;;4989849;28;20035;-84
2022/09/07 05:53:42;;;;;;;6.65;2.20;;;;;;;;;;5002134;28;20035;-84
2022/09/07 05:56:08;;;;;;;5.72;2.30;;;;;;;;;;4953779;28;20092;-85
2022/09/07 05:58:34;;;;;;;7.93;2.30;;;;;;;;;;4945646;28;20031;-83
2022/09/07 06:01:07;;;;;;;4.38;2.00;;;;;;;;;;4957763;28;20561;-87
2022/09/07 06:03:33;;;;;;;4.50;2.08;;;;;;;;;;4947446;28;20034;-85
2022/09/07 06:06:07;;;;;;;8.20;2.80;;;;;;;;;;4942222;28;20046;-85
2022/09/07 06:08:35;;;;;;;4.10;2.20;;;;;;;;;;4954495;28;20108;-85
2022/09/07 06:11:05;;;;;;;5.40;2.10;;;;;;;;;;4942851;28;20034;-86
2022/09/07 06:13:30;;;;;;;7.07;2.30;;;;;;;;;;4944446;28;20045;-86
2022/09/07 06:16:03;;;;;;;6.95;2.20;;;;;;;;;;4940266;28;20038;-85
2022/09/07 06:18:33;;;;;;;5.38;2.00;;;;;;;;;;4955993;28;20042;-86
2022/09/07 06:21:09;;;;;;;4.60;2.40;;;;;;;;;;4949336;28;20057;-86
2022/09/07 06:23:37;;;;;;;3.90;2.10;;;;;;;;;;4948466;28;20127;-85
2022/09/07 06:26:03;;;;;;;4.90;2.17;;;;;;;;;;4932498;28;20075;-85
2022/09/07 06:28:29;;;;;;;5.65;2.53;;;;;;;;;;4940298;28;20512;-87
2022/09/07 06:31:02;;;;;;;5.65;2.50;;;;;;;;;;4953845;28;20061;-87
2022/09/07 06:33:27;;;;;;;5.95;2.40;;;;;;;;;;4961867;28;20042;-86
2022/09/07 06:35:57;;;;;;;6.72;3.20;;;;;;;;;;4986733;28;20721;-88
2022/09/07 06:38:24;;;;;;;5.22;2.30;;;;;;;;;;4954904;28;20520;-86
2022/09/07 06:40:49;;;;;;;6.88;2.10;;;;;;;;;;4970559;28;20050;-86
2022/09/07 06:43:35;;;;;;;6.78;2.45;;;;;;;;;;4971673;28;20112;-88
2022/09/07 06:46:00;;;;;;;6.43;2.45;;;;;;;;;;4913897;29;20067;-88
2022/09/07 06:48:26;;;;;;;6.72;2.63;;;;;;;;;;4895682;29;20087;-86
2022/09/07 06:51:06;;;;;;;7.88;3.17;;;;;;;;;;4944993;28;20578;-88
2022/09/07 06:53:35;;;;;;;7.72;2.42;;;;;;;;;;4905233;29;20083;-85
2022/09/07 06:56:03;;;;;;;6.38;2.60;;;;;;;;;;4928553;28;20036;-86
2022/09/07 06:58:29;;;;;;;6.93;2.50;;;;;;;;;;4945023;28;20043;-86
2022/09/07 07:00:54;;;;;;;5.85;2.40;;;;;;;;;;4917166;29;20043;-85
2022/09/07 07:03:20;;;;;;;6.18;2.33;;;;;;;;;;4906915;29;20078;-86
2022/09/07 07:05:55;;;;;;;6.60;2.70;;;;;;;;;;4895985;29;20051;-84
2022/09/07 07:08:23;;;;;;;5.80;2.30;;;;;;;;;;4931939;29;20050;-85
2022/09/07 07:10:49;;;;;;;6.85;2.67;;;;;;;;;;4915526;29;20139;-86
2022/09/07 07:13:15;;;;;;;5.97;2.53;;;;;;;;;;4914662;29;20043;-87
2022/09/07 07:15:40;;;;;;;5.45;2.42;;;;;;;;;;4911101;29;20095;-86
2022/09/07 07:18:06;;;;;;;6.03;2.40;;;;;;;;;;4940478;28;20035;-89
2022/09/07 07:20:34;;;;;;;5.85;2.70;;;;;;;;;;4946005;28;20467;-89
2022/09/07 07:22:59;;;;;;;6.68;2.47;;;;;;;;;;4922423;28;20509;-86
2022/09/07 07:25:28;;;;;;;4.47;2.30;;;;;;;;;;4988413;28;20042;-87
2022/09/07 07:27:53;;;;;;;5.45;2.38;;;;;;;;;;4990213;28;20616;-87
2022/09/07 07:30:19;;;;;;;4.80;2.42;;;;;;;;;;4991015;28;20030;-86
2022/09/07 07:32:45;;;;;;;6.55;2.60;;;;;;;;;;4957449;28;20165;-88
2022/09/07 07:35:11;;;;;;;5.20;2.28;;;;;;;;;;4965684;28;20034;-85
2022/09/07 07:37:39;;;;;;;7.00;2.95;;;;;;;;;;4969180;28;20061;-86
2022/09/07 07:40:14;;;;;;;7.95;2.50;;;;;;;;;;4944308;28;20685;-90
2022/09/07 07:42:42;;;;;;;4.32;2.63;;;;;;;;;;4909494;28;20960;-87
2022/09/07 07:45:09;;;;;;;7.13;2.60;;;;;;;;;;4907897;28;20042;-86
2022/09/07 07:47:38;;;;;;;6.27;2.80;;;;;;;;;;4970590;28;20042;-90
2022/09/07 07:50:10;;;;;;;6.45;2.80;;;;;;;;;;4951362;28;20277;-90
2022/09/07 07:52:41;;;;;;;14.45;2.70;;;;;;;;;;4968618;28;20037;-87
2022/09/07 07:55:09;;;;;;;6.82;2.67;;;;;;;;;;4980365;28;20477;-87
2022/09/07 07:57:35;;;;;;;6.35;3.00;;;;;;;;;;4962674;28;20197;-89
2022/09/07 08:00:13;;;;;;;8.57;2.90;;;;;;;;;;4958535;28;20140;-89
2022/09/07 08:02:58;;;;;;;6.57;2.65;;;;;;;;;;4958502;28;20042;-88
2022/09/07 08:05:45;;;;;;;10.10;2.80;;;;;;;;;;4934068;28;20043;-89
2022/09/07 08:08:25;;;;;;;5.35;2.63;;;;;;;;;;4961534;28;20046;-88
2022/09/07 08:10:51;;;;;;;4.88;2.40;;;;;;;;;;4938078;28;20507;-90
2022/09/07 08:13:32;;;;;;;6.00;2.60;;;;;;;;;;4989217;28;20041;-88
2022/09/07 08:15:58;;;;;;;5.13;2.70;;;;;;;;;;4904558;28;20067;-86
2022/09/07 08:18:24;;;;;;;7.88;2.80;;;;;;;;;;4956269;28;20039;-85
2022/09/07 08:20:49;;;;;;;8.38;2.78;;;;;;;;;;4961230;28;20042;-84
2022/09/07 08:23:14;;;;;;;6.07;2.78;;;;;;;;;;4990334;28;20027;-88
2022/09/07 08:25:50;;;;;;;12.48;3.05;;;;;;;;;;4987251;28;20042;-84
2022/09/07 08:28:16;;;;;;;5.85;2.60;;;;;;;;;;4954926;28;20851;-84
2022/09/07 08:30:41;;;;;;;5.85;2.42;;;;;;;;;;4989152;28;20078;-85
2022/09/07 08:33:07;;;;;;;12.23;2.85;;;;;;;;;;4956503;28;20118;-85
2022/09/07 08:35:32;;;;;;;6.00;2.72;;;;;;;;;;4990036;28;20378;-86
2022/09/07 08:37:57;;;;;;;10.80;3.33;;;;;;;;;;4999534;28;20034;-87
2022/09/07 08:40:22;;;;;;;8.52;2.67;;;;;;;;;;4955716;28;20057;-88
2022/09/07 08:43:22;;;;;;;8.10;2.67;;;;;;;;;;5005905;28;20405;-85
2022/09/07 08:45:50;;;;;;;6.38;2.95;;;;;;;;;;4971647;28;20444;-86
2022/09/07 08:48:19;;;;;;;6.75;2.97;;;;;;;;;;4953909;28;20114;-86
2022/09/07 08:50:53;;;;;;;5.50;2.95;;;;;;;;;;4986931;28;20105;-87
2022/09/07 08:53:19;;;;;;;8.43;2.67;;;;;;;;;;4970755;28;20561;-91
2022/09/07 08:55:57;;;;;;;6.65;2.60;;;;;;;;;;5007119;28;20390;-87
2022/09/07 08:58:31;;;;;;;6.45;2.65;;;;;;;;;;4988178;28;20038;-90
2022/09/07 09:00:57;;;;;;;5.68;3.08;;;;;;;;;;4971353;28;20039;-89
2022/09/07 09:03:27;;;;;;;4.45;2.60;;;;;;;;;;4987453;28;20074;-91
2022/09/07 09:06:11;;;;;;;6.43;2.85;;;;;;;;;;5000650;28;20146;-90
2022/09/07 09:09:13;;;;;;;4.85;2.30;;;;;;;;;;4971775;28;20507;-90
2022/09/07 09:12:05;;;;;;;6.95;3.75;;;;;;;;;;4967854;28;20089;-90
2022/09/07 09:14:58;;;;;;;5.78;2.50;;;;;;;;;;4958244;28;20434;-86
2022/09/07 09:17:28;;;;;;;6.53;2.92;;;;;;;;;;4920514;28;20142;-87
2022/09/07 09:19:57;;;;;;;5.53;2.33;;;;;;;;;;4938094;28;20406;-85
2022/09/07 09:22:25;;;;;;;9.90;2.60;;;;;;;;;;4928948;28;21027;-89
2022/09/07 09:25:05;;;;;;;4.45;2.40;;;;;;;;;;4927887;29;20511;-88
2022/09/07 09:27:31;;;;;;;7.25;2.72;;;;;;;;;;4920200;29;20043;-84
2022/09/07 09:29:56;;;;;;;4.97;2.20;;;;;;;;;;4944550;28;20511;-87
2022/09/07 09:32:32;;;;;;;8.95;3.47;;;;;;;;;;4924199;29;20046;-85
2022/09/07 09:35:04;;;;;;;5.03;2.33;;;;;;;;;;4938339;28;20039;-85
2022/09/07 09:37:34;;;;;;;6.95;2.30;;;;;;;;;;4945752;28;20039;-87
2022/09/07 09:40:00;;;;;;;5.38;2.63;;;;;;;;;;4908578;29;20043;-84
2022/09/07 09:42:29;;;;;;;6.20;2.55;;;;;;;;;;4941533;28;20043;-85
2022/09/07 09:45:01;;;;;;;5.88;2.53;;;;;;;;;;4937660;28;20042;-87
2022/09/07 09:47:36;;;;;;;5.63;3.00;;;;;;;;;;4918557;28;20046;-85
2022/09/07 09:50:14;;;;;;;6.53;3.15;;;;;;;;;;4928635;29;20500;-86
2022/09/07 09:52:44;;;;;;;5.78;2.90;;;;;;;;;;4920064;28;20381;-84
2022/09/07 09:55:23;;;;;;;6.85;3.00;;;;;;;;;;4945634;28;20047;-85
2022/09/07 09:57:51;;;;;;;6.57;3.50;;;;;;;;;;4961660;28;20053;-88
2022/09/07 10:00:20;;;;;;;6.90;3.40;;;;;;;;;;4980097;28;20187;-90
2022/09/07 10:02:58;;;;;;;5.75;3.10;;;;;;;;;;4974178;28;20398;-88
2022/09/07 10:05:33;;;;;;;10.80;3.60;;;;;;;;;;4961238;28;20082;-87
2022/09/07 10:07:59;;;;;;;5.22;3.38;;;;;;;;;;4995253;28;20137;-88
2022/09/07 10:10:26;;;;;;;5.70;3.70;;;;;;;;;;4961221;28;20566;-90
2022/09/07 10:13:07;;;;;;;6.72;3.63;;;;;;;;;;4966913;28;20126;-89
2022/09/07 10:15:48;;;;;;;;;;;;;;;;;;;;;
2022/09/07 10:19:12;;;;;;;7.65;3.92;;;;;;;;;;4959268;28;20532;-90
2022/09/07 10:22:04;;;;;;;7.65;3.65;;;;;;;;;;4940004;28;20043;-91
2022/09/07 10:28:19;;;;;;;7.93;3.63;;;;;;;;;;4911242;28;20447;-92
2022/09/07 10:31:29;;;;;;;7.05;3.78;;;;;;;;;;4917832;28;20537;-91
2022/09/07 10:34:38;;;;;;;8.02;4.00;;;;;;;;;;4897130;29;20047;-89
2022/09/07 10:41:38;;;;;;;7.75;4.18;;;;;;;;;;4879271;29;20040;-90
2022/09/07 10:44:41;;;;;;;7.07;3.90;;;;;;;;;;4918191;29;20044;-91
2022/09/07 10:51:07;;;;;;;6.95;4.35;;;;;;;;;;4891261;29;20056;-92
2022/09/07 10:53:33;;;;;;;6.13;3.65;;;;;;;;;;4850066;29;20115;-89
2022/09/07 10:56:35;;;;;;;7.57;4.32;;;;;;;;;;4873453;29;20040;-89
2022/09/07 10:59:37;;;;;;;7.40;4.10;;;;;;;;;;4873423;29;20037;-91
2022/09/07 11:03:04;;;;;;;9.27;4.45;;;;;;;;;;4882033;29;20045;-89
2022/09/07 11:15:20;;;;;;;6.93;4.72;;;;;;;;;;4927747;28;20066;-89
2022/09/07 11:18:02;;;;;;;6.50;4.60;;;;;;;;;;4869490;29;20050;-90
2022/09/07 11:20:31;;;;;;;7.13;4.88;;;;;;;;;;4904876;28;20048;-90
2022/09/07 11:23:31;;;;;;;8.80;4.55;;;;;;;;;;4966542;28;20038;-87
2022/09/07 11:26:28;;;;;;;6.40;4.65;;;;;;;;;;4993402;28;20482;-91
2022/09/07 11:28:59;;;;;;;;;;;;;;;;;;4990147;28;20148;-88
2022/09/07 11:31:51;;;;;;;7.80;4.35;;;;;;;;;;4963906;28;19956;-90
2022/09/07 11:34:27;;;;;;;6.88;4.88;;;;;;;;;;4943455;28;20037;-90
2022/09/07 11:37:22;;;;;;;7.88;4.60;;;;;;;;;;4991544;28;20038;-89
2022/09/07 11:40:32;;;;;;;8.88;4.75;;;;;;;;;;4961249;28;20069;-90
2022/09/07 11:43:20;;;;;;;6.30;4.47;;;;;;;;;;4958648;28;20037;-89
2022/09/07 11:45:52;;;;;;;7.30;4.80;;;;;;;;;;4978934;28;20517;-88
2022/09/07 11:48:26;;;;;;;5.97;3.92;;;;;;;;;;4990626;28;20540;-88
2022/09/07 11:50:56;;;;;;;7.05;4.78;;;;;;;;;;5000945;28;20068;-88
2022/09/07 11:53:27;;;;;;;9.32;4.63;;;;;;;;;;5009365;28;20049;-89
2022/09/07 11:56:00;;;;;;;6.65;4.90;;;;;;;;;;5002980;28;20045;-87
2022/09/07 11:58:37;;;;;;;7.45;4.60;;;;;;;;;;5021854;28;20401;-90
2022/09/07 12:01:21;;;;;;;;;;;;;;;;;;5026430;28;20046;-89
2022/09/07 12:04:12;;;;;;;7.32;4.53;;;;;;;;;;5025603;28;19975;-90
2022/09/07 12:07:16;;;;;;;6.45;4.32;;;;;;;;;;4994502;28;20455;-89
2022/09/07 12:10:18;;;;;;;6.88;4.20;;;;;;;;;;4980621;28;20489;-88
2022/09/07 12:12:53;;;;;;;5.85;3.90;;;;;;;;;;5011632;28;20100;-89
2022/09/07 12:15:30;;;;;;;6.82;4.55;;;;;;;;;;4988733;28;20456;-89
2022/09/07 12:18:10;;;;;;;7.20;4.85;;;;;;;;;;5009897;28;20034;-88
2022/09/07 12:20:41;;;;;;;7.15;4.30;;;;;;;;;;4995561;28;20378;-87
2022/09/07 12:23:15;;;;;;;8.90;4.30;;;;;;;;;;4979626;28;20045;-88
2022/09/07 12:25:45;;;;;;;8.10;4.47;;;;;;;;;;5009327;28;20061;-89
2022/09/07 12:28:36;;;;;;;6.50;4.90;;;;;;;;;;4993641;28;20045;-89
2022/09/07 12:31:10;;;;;;;9.82;4.55;;;;;;;;;;5009642;28;20049;-89
2022/09/07 12:33:37;;;;;;;10.43;5.10;;;;;;;;;;4981700;28;20512;-88
2022/09/07 12:36:24;;;;;;;5.95;4.57;;;;;;;;;;4976269;28;20026;-89
2022/09/07 12:39:18;;;;;;;8.27;4.47;;;;;;;;;;4995915;28;20053;-86
2022/09/07 12:41:49;;;;;;;7.88;4.60;;;;;;;;;;4994145;28;20118;-84
2022/09/07 12:44:22;;;;;;;5.97;4.57;;;;;;;;;;4981072;28;20560;-86
2022/09/07 12:46:51;;;;;;;13.35;4.90;;;;;;;;;;4993635;28;20383;-86
2022/09/07 12:49:42;;;;;;;8.05;4.80;;;;;;;;;;4980474;28;20509;-86
2022/09/07 12:52:22;;;;;;;7.20;4.85;;;;;;;;;;5010537;28;20537;-85
2022/09/07 12:54:53;;;;;;;6.05;4.60;;;;;;;;;;4997447;28;20030;-88
2022/09/07 12:57:50;;;;;;;9.10;4.50;;;;;;;;;;4988977;28;20056;-89
2022/09/07 13:00:15;;;;;;;;;;;;;;;;;;4973046;28;20042;-84
2022/09/07 13:03:11;;;;;;;7.07;4.60;;;;;;;;;;4994241;28;19921;-85
2022/09/07 13:06:12;;;;;;;7.40;4.47;;;;;;;;;;5011981;28;20281;-86
2022/09/07 13:09:15;;;;;;;9.30;4.63;;;;;;;;;;4959842;28;20335;-84
2022/09/07 13:11:41;;;;;;;7.55;4.63;;;;;;;;;;5002328;28;20043;-85
2022/09/07 13:14:19;;;;;;;6.78;4.70;;;;;;;;;;4993771;28;20360;-85
2022/09/07 13:16:46;;;;;;;6.30;4.45;;;;;;;;;;4993614;28;20041;-85
2022/09/07 13:19:45;;;;;;;7.63;4.68;;;;;;;;;;4989469;28;20035;-83
2022/09/07 13:22:29;;;;;;;7.25;4.40;;;;;;;;;;5003062;28;20050;-88
2022/09/07 13:24:55;;;;;;;8.35;4.75;;;;;;;;;;4996040;28;20046;-89
2022/09/07 13:27:42;;;;;;;8.60;4.80;;;;;;;;;;4978513;28;20137;-86
2022/09/07 13:30:14;;;;;;;8.32;5.22;;;;;;;;;;4990310;28;20441;-90
2022/09/07 13:32:40;;;;;;;6.88;4.95;;;;;;;;;;4993103;28;20060;-87
2022/09/07 13:35:18;;;;;;;7.03;4.47;;;;;;;;;;4973913;28;20042;-87
2022/09/07 13:38:00;;;;;;;8.88;4.93;;;;;;;;;;4990004;28;20042;-86
2022/09/07 13:40:31;;;;;;;7.93;4.60;;;;;;;;;;4968402;28;20042;-88
2022/09/07 13:42:58;;;;;;;5.65;4.30;;;;;;;;;;4972117;28;20170;-90
2022/09/07 13:45:36;;;;;;;5.85;4.60;;;;;;;;;;4976932;28;20039;-86
2022/09/07 13:48:29;;;;;;;7.20;4.78;;;;;;;;;;4992261;28;20486;-86
2022/09/07 13:51:15;;;;;;;8.07;4.70;;;;;;;;;;4993654;28;20044;-86
2022/09/07 13:54:03;;;;;;;8.25;4.47;;;;;;;;;;4979946;28;20568;-85
2022/09/07 13:56:37;;;;;;;7.45;4.82;;;;;;;;;;4984256;28;20045;-86
2022/09/07 13:59:19;;;;;;;8.77;4.50;;;;;;;;;;4987415;28;20034;-85
2022/09/07 14:01:46;;;;;;;6.22;4.47;;;;;;;;;;4990198;28;20595;-86
2022/09/07 14:04:19;;;;;;;8.82;4.90;;;;;;;;;;4983117;28;20042;-84
2022/09/07 14:06:45;;;;;;;6.93;4.63;;;;;;;;;;4991129;28;20498;-85
2022/09/07 14:09:15;;;;;;;6.50;4.40;;;;;;;;;;4973674;28;20037;-84
2022/09/07 14:11:46;;;;;;;8.35;4.45;;;;;;;;;;4973398;28;20092;-84
2022/09/07 14:14:12;;;;;;;6.50;4.47;;;;;;;;;;4976937;28;20122;-87
2022/09/07 14:16:39;;;;;;;6.88;4.80;;;;;;;;;;4989841;28;20109;-86
2022/09/07 14:19:29;;;;;;;7.43;4.65;;;;;;;;;;4976934;28;20057;-88
2022/09/07 14:21:59;;;;;;;8.13;4.40;;;;;;;;;;4989085;28;20100;-85
2022/09/07 14:24:35;;;;;;;6.57;4.38;;;;;;;;;;4976394;28;20565;-87
2022/09/07 14:27:00;;;;;;;8.98;4.82;;;;;;;;;;4976290;28;20850;-87
2022/09/07 14:29:30;;;;;;;7.53;4.15;;;;;;;;;;4974046;28;20034;-89
2022/09/07 14:31:56;;;;;;;7.88;4.63;;;;;;;;;;4978705;28;20042;-85
2022/09/07 14:34:26;;;;;;;7.90;4.20;;;;;;;;;;4972593;28;20377;-84
2022/09/07 14:36:51;;;;;;;7.55;4.55;;;;;;;;;;4974212;28;20035;-87
2022/09/07 14:39:20;;;;;;;6.68;4.22;;;;;;;;;;4974325;28;20520;-84
2022/09/07 14:41:45;;;;;;;5.88;4.22;;;;;;;;;;4989004;28;20052;-86
2022/09/07 14:44:35;;;;;;;6.72;4.30;;;;;;;;;;4973630;28;20030;-84
2022/09/07 14:47:26;;;;;;;7.68;4.25;;;;;;;;;;4965194;28;20041;-86
2022/09/07 14:49:53;;;;;;;7.15;4.47;;;;;;;;;;4971223;28;20041;-85
2022/09/07 14:52:30;;;;;;;6.63;4.27;;;;;;;;;;4987725;28;20061;-85
2022/09/07 14:54:55;;;;;;;7.25;4.55;;;;;;;;;;4975459;28;20035;-85
2022/09/07 14:57:29;;;;;;;8.70;4.47;;;;;;;;;;4974233;28;20045;-85
2022/09/07 14:59:56;;;;;;;7.78;4.50;;;;;;;;;;4984724;28;20029;-84
2022/09/07 15:02:33;;;;;;;5.60;3.97;;;;;;;;;;4966495;28;20085;-85
2022/09/07 15:05:15;;;;;;;14.23;4.15;;;;;;;;;;4991927;28;20081;-84
2022/09/07 15:07:51;;;;;;;6.07;4.30;;;;;;;;;;4973833;28;20153;-83
2022/09/07 15:10:20;;;;;;;6.05;4.20;;;;;;;;;;4974493;28;20041;-86
2022/09/07 15:12:49;;;;;;;7.82;4.18;;;;;;;;;;4990572;28;20054;-88
2022/09/07 15:15:26;;;;;;;8.15;4.43;;;;;;;;;;4986578;28;20530;-86
2022/09/07 15:17:53;;;;;;;7.18;4.07;;;;;;;;;;4984005;28;20045;-88
2022/09/07 15:20:42;;;;;;;6.97;4.43;;;;;;;;;;4990584;28;20374;-86
2022/09/07 15:23:15;;;;;;;6.22;4.30;;;;;;;;;;4978151;28;20225;-87
2022/09/07 15:25:41;;;;;;;7.32;4.50;;;;;;;;;;4976977;28;20038;-86
2022/09/07 15:28:19;;;;;;;7.53;4.33;;;;;;;;;;4973619;28;20039;-87
2022/09/07 15:30:44;;;;;;;7.20;4.47;;;;;;;;;;4985672;28;20033;-86
2022/09/07 15:33:10;;;;;;;5.60;4.20;;;;;;;;;;4982015;28;20084;-85
2022/09/07 15:35:35;;;;;;;6.35;4.40;;;;;;;;;;4991750;28;20046;-86
2022/09/07 15:38:00;;;;;;;6.25;4.13;;;;;;;;;;4991291;28;20582;-88
2022/09/07 15:40:27;;;;;;;6.50;4.38;;;;;;;;;;4988671;28;20045;-86
2022/09/07 15:42:52;;;;;;;8.13;4.32;;;;;;;;;;4976349;28;20173;-89